Time;durP1;ratioP1;P1;durP2;ratioP2;P2;SDS_P1;SDS_P2;PMS_P1;PMS_P2;Temp;Humidity;BMP_temperature;BMP_pressure;BME280_temperature;BME280_humidity;BME280_pressure;Samples;Min_cycle;Max_cycle;Signal;HPM_P1;HPM_P2
2021/12/17 00:00:21;;;;;;;47.43;16.70;;;;;9.20;103304.00;;;;4997314;28;20661;-72
2021/12/17 00:03:15;;;;;;;45.77;14.67;;;;;9.20;103311.00;;;;4979935;28;20303;-72
2021/12/17 00:09:09;;;;;;;42.30;14.40;;;;;9.20;103314.00;;;;4984483;28;20253;-71
2021/12/17 00:11:56;;;;;;;41.03;14.73;;;;;9.20;103315.00;;;;4984707;28;20773;-72
2021/12/17 00:14:47;;;;;;;48.43;16.30;;;;;9.20;103317.00;;;;4991349;28;20235;-72
2021/12/17 00:17:37;;;;;;;39.57;15.77;;;;;9.20;103307.00;;;;5007696;28;20248;-72
2021/12/17 00:48:24;;;;;;;43.83;16.00;;;;;9.30;103301.00;;;;5004600;28;20619;-72
2021/12/17 00:51:46;;;;;;;52.10;16.77;;;;;9.20;103300.00;;;;5005417;28;20240;-72
2021/12/17 00:54:36;;;;;;;45.07;15.30;;;;;9.20;103301.00;;;;4997246;28;20304;-72
2021/12/17 00:57:27;;;;;;;47.43;17.03;;;;;9.30;103297.00;;;;4992246;28;20240;-72
2021/12/17 01:00:19;;;;;;;44.63;14.77;;;;;9.20;103298.00;;;;4995431;28;20336;-72
2021/12/17 01:03:06;;;;;;;65.40;20.67;;;;;9.20;103297.00;;;;4995727;28;20224;-72
2021/12/17 01:05:52;;;;;;;61.60;18.43;;;;;9.20;103295.00;;;;4992381;28;20226;-72
2021/12/17 01:08:38;;;;;;;39.93;13.90;;;;;9.30;103292.00;;;;4990375;28;20263;-72
2021/12/17 01:11:26;;;;;;;52.93;15.40;;;;;9.20;103298.00;;;;4996121;28;20231;-71
2021/12/17 01:14:13;;;;;;;49.07;15.23;;;;;9.20;103297.00;;;;4980828;28;20292;-71
2021/12/17 01:17:01;;;;;;;51.07;15.33;;;;;9.20;103303.00;;;;4982883;28;20255;-73
2021/12/17 01:23:01;;;;;;;54.13;17.37;;;;;9.20;103294.00;;;;4984631;28;20916;-72
2021/12/17 01:35:20;;;;;;;65.00;19.53;;;;;9.20;103292.00;;;;4988633;28;20933;-71
2021/12/17 01:41:45;;;;;;;57.67;17.40;;;;;9.20;103300.00;;;;4990970;28;20261;-72
2021/12/17 01:44:31;;;;;;;48.60;16.90;;;;;9.20;103304.00;;;;5011730;28;20250;-72
2021/12/17 01:47:19;;;;;;;62.10;19.43;;;;;9.20;103303.00;;;;5009147;28;20889;-72
2021/12/17 01:56:31;;;;;;;71.07;21.73;;;;;9.20;103316.00;;;;4992345;28;20227;-72
2021/12/17 01:59:33;;;;;;;74.10;22.57;;;;;9.20;103312.00;;;;4989019;28;20340;-72
2021/12/17 02:02:21;;;;;;;77.47;22.83;;;;;9.20;103311.00;;;;5003055;28;20754;-70
2021/12/17 02:05:08;;;;;;;74.53;21.43;;;;;9.20;103302.00;;;;5012160;28;20235;-71
2021/12/17 02:07:57;;;;;;;75.87;21.50;;;;;9.20;103306.00;;;;5010002;28;20245;-71
2021/12/17 02:20:39;;;;;;;57.13;18.67;;;;;9.20;103298.00;;;;4966088;28;20360;-71
2021/12/17 02:29:52;;;;;;;45.20;15.77;;;;;9.30;103293.00;;;;5025951;28;20239;-71
2021/12/17 02:32:40;;;;;;;53.53;17.33;;;;;9.20;103294.00;;;;5010184;28;20261;-71
2021/12/17 02:35:33;;;;;;;54.43;17.47;;;;;9.20;103295.00;;;;5019049;28;20745;-71
2021/12/17 02:38:21;;;;;;;59.47;19.50;;;;;9.20;103306.00;;;;5012595;28;20244;-71
2021/12/17 02:47:19;;;;;;;65.47;20.63;;;;;9.10;103304.00;;;;4988934;28;20229;-71
2021/12/17 02:50:07;;;;;;;56.57;19.63;;;;;9.20;103305.00;;;;4998317;28;20363;-71
2021/12/17 02:52:56;;;;;;;58.10;18.47;;;;;9.20;103298.00;;;;5007837;28;20243;-71
2021/12/17 02:55:54;;;;;;;47.10;16.13;;;;;9.20;103308.00;;;;5005186;28;20314;-71
2021/12/17 02:58:40;;;;;;;54.80;17.90;;;;;9.10;103304.00;;;;5023246;28;20243;-71
2021/12/17 03:01:27;;;;;;;65.17;18.23;;;;;9.10;103306.00;;;;5008815;28;20237;-71
2021/12/17 03:04:18;;;;;;;68.07;19.70;;;;;9.20;103300.00;;;;5013711;28;20243;-71
2021/12/17 03:07:04;;;;;;;51.20;17.70;;;;;9.20;103299.00;;;;5010222;28;20614;-71
2021/12/17 03:10:03;;;;;;;65.53;18.70;;;;;9.20;103308.00;;;;5009883;28;20235;-72
2021/12/17 03:12:54;;;;;;;62.60;20.33;;;;;9.20;103295.00;;;;5009779;28;20255;-72
2021/12/17 03:15:47;;;;;;;54.90;18.10;;;;;9.20;103309.00;;;;5020924;28;20255;-72
2021/12/17 03:24:37;;;;;;;62.20;18.90;;;;;9.20;103293.00;;;;5019090;28;20722;-69
2021/12/17 03:27:23;;;;;;;55.80;19.63;;;;;9.20;103303.00;;;;5016810;28;20399;-72
2021/12/17 03:30:12;;;;;;;61.90;20.20;;;;;9.20;103295.00;;;;4989312;28;20244;-71
2021/12/17 03:32:59;;;;;;;52.77;19.90;;;;;9.20;103298.00;;;;4995067;28;20852;-72
2021/12/17 03:35:45;;;;;;;66.53;20.57;;;;;9.30;103300.00;;;;4992716;28;20231;-71
2021/12/17 03:38:31;;;;;;;55.27;19.83;;;;;9.20;103282.00;;;;4986832;28;20263;-69
2021/12/17 03:41:21;;;;;;;57.97;18.83;;;;;9.30;103294.00;;;;4986562;28;20344;-71
2021/12/17 03:44:09;;;;;;;59.40;20.17;;;;;9.20;103289.00;;;;5010787;28;20367;-72
2021/12/17 03:46:57;;;;;;;61.23;19.97;;;;;9.20;103285.00;;;;4989311;28;20225;-72
2021/12/17 03:49:45;;;;;;;59.33;18.97;;;;;9.20;103285.00;;;;4984740;28;20233;-72
2021/12/17 03:52:32;;;;;;;54.90;18.73;;;;;9.20;103290.00;;;;4989168;28;20242;-73
2021/12/17 03:55:18;;;;;;;51.87;18.77;;;;;9.20;103288.00;;;;4985348;28;20616;-72
2021/12/17 03:58:05;;;;;;;47.47;17.37;;;;;9.20;103289.00;;;;5011981;28;20322;-72
2021/12/17 04:00:51;;;;;;;49.43;17.37;;;;;9.20;103296.00;;;;5008532;28;20368;-70
2021/12/17 04:03:39;;;;;;;48.47;17.77;;;;;9.20;103292.00;;;;4990698;28;20241;-72
2021/12/17 04:06:25;;;;;;;49.20;17.30;;;;;9.20;103301.00;;;;4977210;28;20230;-72
2021/12/17 04:09:12;;;;;;;51.33;18.03;;;;;9.20;103298.00;;;;4983755;28;20311;-72
2021/12/17 04:12:00;;;;;;;52.03;17.00;;;;;9.20;103302.00;;;;4984742;28;20260;-69
2021/12/17 04:14:48;;;;;;;50.30;16.57;;;;;9.20;103301.00;;;;4975724;28;20239;-72
2021/12/17 04:17:42;;;;;;;45.87;17.00;;;;;9.20;103307.00;;;;5004958;28;20249;-72
2021/12/17 04:20:29;;;;;;;42.77;16.07;;;;;9.20;103301.00;;;;5017730;28;20238;-71
2021/12/17 04:23:15;;;;;;;39.13;14.90;;;;;9.20;103305.00;;;;4986728;28;20244;-71
2021/12/17 04:26:02;;;;;;;42.60;16.17;;;;;9.20;103295.00;;;;4986308;28;20234;-71
2021/12/17 04:28:51;;;;;;;42.20;15.67;;;;;9.20;103292.00;;;;4977197;28;20360;-71
2021/12/17 04:31:38;;;;;;;39.87;15.40;;;;;9.10;103282.00;;;;5015722;28;20347;-72
2021/12/17 04:34:24;;;;;;;38.73;15.07;;;;;9.10;103286.00;;;;5003482;28;20244;-71
2021/12/17 04:37:12;;;;;;;41.23;13.97;;;;;9.10;103288.00;;;;4982527;28;20255;-72
2021/12/17 04:39:59;;;;;;;38.80;14.63;;;;;9.10;103285.00;;;;5000246;28;20236;-72
2021/12/17 04:42:56;;;;;;;40.37;14.73;;;;;9.10;103296.00;;;;4996052;28;20234;-71
2021/12/17 04:45:48;;;;;;;38.60;13.63;;;;;9.10;103301.00;;;;5008369;28;20239;-72
2021/12/17 04:57:51;;;;;;;36.47;13.60;;;;;9.20;103305.00;;;;5030577;28;20238;-72
2021/12/17 05:00:38;;;;;;;35.30;13.47;;;;;9.10;103307.00;;;;5015162;28;20301;-72
2021/12/17 05:03:24;;;;;;;36.37;13.60;;;;;9.30;103319.00;;;;5006905;28;20235;-73
2021/12/17 05:06:11;;;;;;;36.20;13.10;;;;;9.20;103326.00;;;;5022186;28;20238;-70
2021/12/17 05:09:04;;;;;;;35.70;13.73;;;;;9.10;103321.00;;;;5003615;28;20232;-71
2021/12/17 05:18:19;;;;;;;39.00;13.43;;;;;9.20;103305.00;;;;5028339;28;20431;-71
2021/12/17 05:21:07;;;;;;;38.83;13.77;;;;;9.20;103324.00;;;;5025433;28;20255;-71
2021/12/17 05:23:53;;;;;;;41.87;13.80;;;;;9.10;103324.00;;;;5014943;28;20235;-73
2021/12/17 05:26:39;;;;;;;43.77;14.13;;;;;9.20;103317.00;;;;5030108;28;20288;-71
2021/12/17 05:29:27;;;;;;;42.57;13.87;;;;;9.20;103319.00;;;;5005561;28;20231;-72
2021/12/17 05:32:13;;;;;;;44.03;13.70;;;;;9.10;103311.00;;;;4995090;28;20227;-71
2021/12/17 05:34:59;;;;;;;42.10;14.37;;;;;9.10;103321.00;;;;4998168;28;20230;-71
2021/12/17 05:37:48;;;;;;;41.13;14.03;;;;;9.10;103316.00;;;;4987549;28;20376;-71
2021/12/17 05:40:35;;;;;;;35.63;12.53;;;;;9.10;103321.00;;;;5011779;28;20370;-70
2021/12/17 05:43:22;;;;;;;39.50;13.40;;;;;9.10;103305.00;;;;4989810;28;20235;-71
2021/12/17 05:46:12;;;;;;;36.17;12.50;;;;;9.10;103315.00;;;;5007250;28;20235;-72
2021/12/17 05:48:58;;;;;;;40.23;12.90;;;;;9.10;103313.00;;;;5021887;28;20236;-70
2021/12/17 05:51:49;;;;;;;35.17;13.00;;;;;9.10;103313.00;;;;4993491;28;20222;-71
2021/12/17 05:54:35;;;;;;;35.63;12.77;;;;;9.10;103314.00;;;;5012719;28;20234;-71
2021/12/17 05:57:21;;;;;;;39.87;13.50;;;;;9.20;103304.00;;;;4989973;28;20308;-71
2021/12/17 06:00:11;;;;;;;43.83;13.63;;;;;9.10;103300.00;;;;4995905;28;20254;-71
2021/12/17 06:02:59;;;;;;;39.10;13.50;;;;;9.20;103305.00;;;;5004523;28;20292;-72
2021/12/17 06:05:46;;;;;;;40.70;13.50;;;;;9.10;103310.00;;;;4987215;28;20859;-70
2021/12/17 06:08:32;;;;;;;46.53;14.27;;;;;9.10;103298.00;;;;5019410;28;20230;-71
2021/12/17 06:11:18;;;;;;;42.90;14.33;;;;;9.10;103299.00;;;;5011232;28;20240;-71
2021/12/17 06:14:05;;;;;;;50.80;14.83;;;;;9.20;103298.00;;;;5013177;28;20392;-69
2021/12/17 06:16:51;;;;;;;46.27;14.07;;;;;9.10;103294.00;;;;4983197;28;20369;-72
2021/12/17 06:19:39;;;;;;;50.73;14.17;;;;;9.10;103297.00;;;;5010626;28;20301;-72
2021/12/17 06:22:25;;;;;;;52.33;14.83;;;;;9.10;103269.00;;;;4988405;28;20232;-72
2021/12/17 06:25:12;;;;;;;48.23;14.30;;;;;9.10;103290.00;;;;5014155;28;20228;-72
2021/12/17 06:27:59;;;;;;;50.40;13.63;;;;;9.10;103296.00;;;;5006991;28;20834;-71
2021/12/17 06:30:44;;;;;;;44.97;14.37;;;;;9.10;103288.00;;;;4998038;28;20228;-72
2021/12/17 06:33:31;;;;;;;46.73;13.50;;;;;9.20;103290.00;;;;4994133;28;20240;-71
2021/12/17 06:36:18;;;;;;;48.43;14.30;;;;;9.10;103292.00;;;;4983366;28;20323;-72
2021/12/17 06:39:06;;;;;;;43.17;13.57;;;;;9.10;103294.00;;;;5005979;28;20227;-72
2021/12/17 06:41:53;;;;;;;43.03;12.90;;;;;9.10;103296.00;;;;5001594;28;20979;-72
2021/12/17 06:44:40;;;;;;;42.47;12.23;;;;;9.10;103291.00;;;;5003329;28;20362;-72
2021/12/17 06:47:30;;;;;;;38.07;11.90;;;;;9.10;103298.00;;;;4997484;28;20239;-72
2021/12/17 06:57:27;;;;;;;29.67;10.37;;;;;9.10;103296.00;;;;5006810;28;20271;-72
2021/12/17 07:00:10;;;;;;;30.10;10.60;;;;;9.20;103305.00;;;;4995185;28;20310;-71
2021/12/17 07:06:35;;;;;;;24.57;10.07;;;;;9.10;103310.00;;;;5004847;28;20237;-71
2021/12/17 07:10:05;;;;;;;30.33;10.03;;;;;9.10;103299.00;;;;4995748;28;20314;-68
2021/12/17 07:19:50;;;;;;;31.43;10.43;;;;;9.10;103293.00;;;;4986860;28;20228;-70
2021/12/17 07:22:25;;;;;;;28.23;10.13;;;;;9.00;103289.00;;;;4980468;28;20232;-70
2021/12/17 07:28:47;;;;;;;28.50;9.60;;;;;9.00;103289.00;;;;5011514;28;20230;-71
2021/12/17 07:34:50;;;;;;;30.20;9.77;;;;;9.20;103300.00;;;;4998979;28;20367;-70
2021/12/17 07:40:43;;;;;;;35.73;10.97;;;;;9.10;103303.00;;;;5005952;28;20615;-68
2021/12/17 07:43:37;;;;;;;31.57;10.63;;;;;9.20;103324.00;;;;4999148;28;20240;-68
2021/12/17 07:46:24;;;;;;;32.83;10.97;;;;;9.10;103316.00;;;;4988063;28;20294;-69
2021/12/17 07:49:09;;;;;;;25.50;10.07;;;;;9.10;103321.00;;;;5013727;28;20297;-68
2021/12/17 07:51:55;;;;;;;30.43;10.33;;;;;9.10;103325.00;;;;4984580;28;20271;-68
2021/12/17 07:54:41;;;;;;;27.80;9.83;;;;;9.20;103335.00;;;;5000967;28;20231;-69
2021/12/17 07:57:29;;;;;;;25.53;9.00;;;;;9.30;103338.00;;;;4997581;28;20234;-69
2021/12/17 08:00:16;;;;;;;27.10;8.80;;;;;9.30;103324.00;;;;4979779;28;20741;-68
2021/12/17 08:03:02;;;;;;;25.90;9.63;;;;;9.20;103339.00;;;;4988855;28;20235;-69
2021/12/17 08:05:50;;;;;;;28.33;10.10;;;;;9.10;103341.00;;;;4977085;28;20287;-69
2021/12/17 08:08:36;;;;;;;23.77;8.47;;;;;9.10;103330.00;;;;4980900;28;20244;-70
2021/12/17 08:11:23;;;;;;;26.70;8.53;;;;;9.20;103349.00;;;;5002022;28;20351;-69
2021/12/17 08:14:16;;;;;;;20.33;8.30;;;;;9.20;103341.00;;;;5012780;28;20360;-68
2021/12/17 08:17:14;;;;;;;20.47;8.37;;;;;9.10;103353.00;;;;4999655;28;20354;-66
2021/12/17 08:26:15;;;;;;;19.17;8.07;;;;;9.10;103360.00;;;;4987797;28;20227;-69
2021/12/17 08:29:25;;;;;;;21.23;9.10;;;;;9.10;103354.00;;;;4983058;28;20653;-70
2021/12/17 08:32:13;;;;;;;20.97;8.87;;;;;9.10;103356.00;;;;4982909;28;20240;-70
2021/12/17 08:34:59;;;;;;;18.17;7.87;;;;;9.00;103367.00;;;;4981712;28;20764;-70
2021/12/17 08:37:45;;;;;;;16.93;7.60;;;;;9.00;103361.00;;;;4990306;28;20229;-70
2021/12/17 08:40:33;;;;;;;16.43;8.47;;;;;9.10;103361.00;;;;4983157;28;20243;-73
2021/12/17 08:43:19;;;;;;;24.27;8.60;;;;;9.00;103360.00;;;;4957393;28;20742;-70
2021/12/17 08:46:05;;;;;;;14.67;7.47;;;;;9.00;103373.00;;;;4987236;28;20259;-70
2021/12/17 08:48:53;;;;;;;17.80;8.00;;;;;9.10;103374.00;;;;4979178;28;20230;-70
2021/12/17 08:51:41;;;;;;;17.90;7.53;;;;;9.10;103378.00;;;;5012845;28;20227;-70
2021/12/17 08:54:27;;;;;;;19.67;7.57;;;;;9.20;103382.00;;;;5010679;28;20235;-72
2021/12/17 08:57:14;;;;;;;20.13;7.67;;;;;9.10;103387.00;;;;5010995;28;20249;-70
2021/12/17 09:00:05;;;;;;;16.47;7.10;;;;;9.20;103384.00;;;;4997490;28;20234;-70
2021/12/17 09:02:51;;;;;;;16.37;7.20;;;;;9.10;103381.00;;;;4985554;28;20721;-68
2021/12/17 09:05:43;;;;;;;13.60;7.23;;;;;9.10;103377.00;;;;5015914;28;20347;-70
2021/12/17 09:08:29;;;;;;;17.97;7.27;;;;;9.20;103395.00;;;;5023303;28;20640;-71
2021/12/17 09:11:16;;;;;;;13.87;6.77;;;;;9.20;103385.00;;;;5009915;28;20356;-70
2021/12/17 09:14:04;;;;;;;15.27;6.90;;;;;9.20;103388.00;;;;4992917;28;20238;-67
2021/12/17 09:16:51;;;;;;;14.57;7.20;;;;;9.10;103394.00;;;;4988044;28;20232;-70
2021/12/17 09:19:38;;;;;;;14.27;6.73;;;;;9.10;103391.00;;;;4988616;28;20282;-70
2021/12/17 09:22:26;;;;;;;20.73;9.53;;;;;9.10;103394.00;;;;4989871;28;20376;-70
2021/12/17 09:25:14;;;;;;;13.57;7.00;;;;;9.30;103389.00;;;;5014609;28;21044;-70
2021/12/17 09:28:02;;;;;;;16.50;6.90;;;;;9.30;103399.00;;;;5004059;28;20792;-70
2021/12/17 09:30:49;;;;;;;14.47;6.80;;;;;9.30;103393.00;;;;5006856;28;20231;-71
2021/12/17 09:33:35;;;;;;;14.03;6.63;;;;;9.20;103398.00;;;;5021783;28;20721;-70
2021/12/17 09:36:21;;;;;;;13.60;7.30;;;;;9.30;103398.00;;;;5016274;28;20226;-71
2021/12/17 09:39:09;;;;;;;15.80;6.40;;;;;9.20;103398.00;;;;4994908;28;20239;-70
2021/12/17 09:41:56;;;;;;;13.07;6.23;;;;;9.50;103403.00;;;;4982565;28;20290;-70
2021/12/17 09:44:42;;;;;;;14.83;6.53;;;;;9.40;103404.00;;;;4988338;28;20224;-70
2021/12/17 09:47:28;;;;;;;12.17;5.87;;;;;9.60;103411.00;;;;5009817;28;20359;-70
2021/12/17 09:50:19;;;;;;;13.97;6.57;;;;;9.40;103409.00;;;;4990652;28;20350;-69
2021/12/17 09:53:05;;;;;;;11.93;6.20;;;;;9.30;103397.00;;;;5003901;28;20231;-69
2021/12/17 09:55:52;;;;;;;18.30;8.23;;;;;9.40;103403.00;;;;5011326;28;20226;-70
2021/12/17 09:58:39;;;;;;;14.37;7.80;;;;;9.50;103410.00;;;;4999599;28;20227;-70
2021/12/17 10:01:25;;;;;;;13.67;7.47;;;;;9.40;103403.00;;;;4989123;28;20235;-71
2021/12/17 10:04:18;;;;;;;13.17;6.90;;;;;9.30;103374.00;;;;4977613;28;20960;-70
2021/12/17 10:07:21;;;;;;;15.13;7.53;;;;;9.40;103404.00;;;;4996847;28;20228;-70
2021/12/17 10:10:08;;;;;;;12.60;6.57;;;;;9.40;103414.00;;;;5002952;28;20225;-69
2021/12/17 10:13:07;;;;;;;11.77;5.53;;;;;9.50;103417.00;;;;4986113;28;20230;-70
2021/12/17 10:15:55;;;;;;;11.73;5.53;;;;;9.50;103408.00;;;;5005217;28;20311;-69
2021/12/17 10:18:46;;;;;;;10.23;4.80;;;;;9.40;103399.00;;;;5015885;28;20271;-69
2021/12/17 10:21:38;;;;;;;13.10;5.33;;;;;9.40;103402.00;;;;5012818;28;20307;-69
2021/12/17 10:24:24;;;;;;;10.27;5.67;;;;;9.60;103402.00;;;;5016905;28;20235;-67
2021/12/17 10:27:22;;;;;;;13.30;6.23;;;;;9.60;103408.00;;;;5003675;28;20225;-70
2021/12/17 10:30:17;;;;;;;8.73;4.93;;;;;9.60;103417.00;;;;4991311;28;20241;-71
2021/12/17 10:33:08;;;;;;;12.80;5.30;;;;;9.60;103423.00;;;;4992506;28;20229;-69
2021/12/17 10:35:57;;;;;;;9.60;5.70;;;;;9.60;103402.00;;;;4988966;28;20233;-66
2021/12/17 10:38:45;;;;;;;8.53;5.03;;;;;9.60;103421.00;;;;4984649;28;20306;-70
2021/12/17 10:41:33;;;;;;;8.83;4.80;;;;;9.60;103431.00;;;;5011999;28;20310;-69
2021/12/17 10:44:22;;;;;;;9.63;4.77;;;;;9.70;103425.00;;;;5009274;28;20718;-70
2021/12/17 10:47:15;;;;;;;9.73;5.80;;;;;9.80;103425.00;;;;5008865;28;20697;-69
2021/12/17 10:50:03;;;;;;;7.83;4.60;;;;;9.90;103433.00;;;;4990592;28;20282;-70
2021/12/17 10:52:56;;;;;;;8.93;4.70;;;;;9.90;103437.00;;;;4993189;28;20221;-70
2021/12/17 10:55:45;;;;;;;8.13;4.70;;;;;9.90;103430.00;;;;5014978;28;20225;-70
2021/12/17 10:58:31;;;;;;;8.40;5.23;;;;;9.80;103430.00;;;;5001074;28;20245;-69
2021/12/17 11:01:17;;;;;;;10.43;6.17;;;;;9.90;103416.00;;;;4993057;28;20432;-69
2021/12/17 11:04:14;;;;;;;11.63;6.57;;;;;9.80;103423.00;;;;4997515;28;20708;-70
2021/12/17 11:07:03;;;;;;;9.07;5.40;;;;;9.80;103417.00;;;;4996935;28;20241;-71
2021/12/17 11:09:50;;;;;;;9.57;5.60;;;;;9.60;103422.00;;;;4983821;28;20232;-71
2021/12/17 11:12:38;;;;;;;10.07;5.97;;;;;9.80;103409.00;;;;4985708;28;20236;-70
2021/12/17 11:15:30;;;;;;;10.37;5.73;;;;;9.80;103413.00;;;;5001492;28;20236;-70
2021/12/17 11:18:17;;;;;;;9.87;5.63;;;;;9.70;103414.00;;;;4989082;28;20309;-71
2021/12/17 11:21:05;;;;;;;11.27;5.93;;;;;9.60;103416.00;;;;4987592;28;20297;-71
2021/12/17 11:23:53;;;;;;;11.37;6.00;;;;;9.60;103417.00;;;;4984950;28;20297;-69
2021/12/17 11:26:40;;;;;;;12.00;6.40;;;;;9.70;103421.00;;;;4989227;28;20415;-70
2021/12/17 11:29:27;;;;;;;12.17;6.73;;;;;9.60;103415.00;;;;4986929;28;20232;-70
2021/12/17 11:32:14;;;;;;;11.73;6.70;;;;;9.70;103413.00;;;;5001633;28;20267;-70
2021/12/17 11:35:01;;;;;;;14.83;8.10;;;;;9.50;103410.00;;;;5000890;28;20251;-70
2021/12/17 11:37:51;;;;;;;13.30;8.10;;;;;9.50;103419.00;;;;4977939;28;20625;-70
2021/12/17 11:40:44;;;;;;;13.40;7.50;;;;;9.50;103415.00;;;;4990400;28;20720;-70
2021/12/17 11:43:48;;;;;;;11.63;7.17;;;;;9.70;103411.00;;;;4984959;28;20265;-70
2021/12/17 11:46:35;;;;;;;10.00;5.93;;;;;9.70;103416.00;;;;5008049;28;20259;-69
2021/12/17 11:49:24;;;;;;;12.20;6.50;;;;;9.70;103421.00;;;;4988554;28;20230;-70
2021/12/17 11:52:10;;;;;;;12.20;7.13;;;;;9.80;103417.00;;;;4985707;28;20967;-70
2021/12/17 11:55:29;;;;;;;9.90;5.97;;;;;9.90;103410.00;;;;4990307;28;20284;-70
2021/12/17 11:58:35;;;;;;;10.43;6.77;;;;;9.80;103403.00;;;;5003568;28;20627;-70
2021/12/17 12:01:48;;;;;;;10.27;5.87;;;;;9.80;103402.00;;;;4992064;28;20240;-71
2021/12/17 12:04:49;;;;;;;11.53;6.33;;;;;9.80;103417.00;;;;4998085;28;20621;-71
2021/12/17 12:07:37;;;;;;;10.17;6.07;;;;;9.80;103379.00;;;;5001214;28;20229;-69
2021/12/17 12:10:25;;;;;;;10.33;6.50;;;;;9.90;103399.00;;;;4998828;28;20239;-70
2021/12/17 12:13:11;;;;;;;11.13;6.53;;;;;9.90;103398.00;;;;5001579;28;20237;-71
2021/12/17 12:16:02;;;;;;;9.93;6.13;;;;;9.90;103385.00;;;;4998071;28;20712;-69
2021/12/17 12:18:50;;;;;;;9.30;6.13;;;;;9.90;103379.00;;;;4985077;28;20236;-70
2021/12/17 12:21:38;;;;;;;9.27;5.97;;;;;10.00;103389.00;;;;4964792;28;20238;-72
2021/12/17 12:24:24;;;;;;;8.33;5.47;;;;;10.00;103394.00;;;;4971927;28;20795;-70
2021/12/17 12:27:30;;;;;;;10.03;6.07;;;;;10.00;103402.00;;;;4995625;28;20288;-70
2021/12/17 12:30:16;;;;;;;12.50;6.13;;;;;10.10;103396.00;;;;4993821;28;20244;-69
2021/12/17 12:33:07;;;;;;;10.20;6.00;;;;;10.10;103389.00;;;;4994019;28;20234;-69
2021/12/17 12:35:58;;;;;;;10.37;6.20;;;;;10.10;103391.00;;;;4998811;28;20270;-69
2021/12/17 12:38:44;;;;;;;10.53;5.60;;;;;10.20;103389.00;;;;4999035;28;20300;-69
2021/12/17 12:41:42;;;;;;;12.27;6.03;;;;;10.00;103393.00;;;;4997828;28;20230;-70
2021/12/17 12:45:09;;;;;;;12.07;6.30;;;;;10.10;103387.00;;;;4994269;28;20240;-71
2021/12/17 12:48:00;;;;;;;8.73;5.63;;;;;10.20;103396.00;;;;5006526;28;20243;-67
2021/12/17 12:50:47;;;;;;;8.43;5.87;;;;;10.10;103389.00;;;;5013318;28;20240;-70
2021/12/17 12:53:33;;;;;;;6.60;5.23;;;;;10.20;103379.00;;;;5012410;28;20236;-70
2021/12/17 12:56:20;;;;;;;6.23;5.20;;;;;10.20;103393.00;;;;5011701;28;20232;-68
2021/12/17 12:59:07;;;;;;;6.50;5.03;;;;;10.20;103388.00;;;;5001586;28;20235;-69
2021/12/17 13:01:55;;;;;;;11.93;6.70;;;;;10.10;103372.00;;;;5002124;28;20272;-69
2021/12/17 13:04:42;;;;;;;6.67;5.03;;;;;10.20;103379.00;;;;5003780;28;20236;-68
2021/12/17 13:07:33;;;;;;;7.23;5.77;;;;;10.20;103375.00;;;;5012249;28;20863;-69
2021/12/17 13:10:22;;;;;;;9.60;5.70;;;;;10.20;103370.00;;;;5013264;28;20310;-71
2021/12/17 13:13:17;;;;;;;8.23;5.30;;;;;10.20;103378.00;;;;5014242;28;20803;-68
2021/12/17 13:16:12;;;;;;;7.70;5.50;;;;;10.10;103369.00;;;;4989568;28;20735;-72
2021/12/17 13:22:30;;;;;;;8.87;5.50;;;;;10.10;103373.00;;;;4973036;28;20228;-69
2021/12/17 13:25:24;;;;;;;6.47;5.30;;;;;10.10;103371.00;;;;4990190;28;20233;-69
2021/12/17 13:28:10;;;;;;;7.73;5.40;;;;;10.10;103355.00;;;;5005947;28;20772;-70
2021/12/17 13:30:57;;;;;;;8.57;5.40;;;;;10.10;103353.00;;;;5005409;28;20240;-71
2021/12/17 13:33:43;;;;;;;6.33;5.23;;;;;10.00;103355.00;;;;4990224;28;20236;-70
2021/12/17 13:36:31;;;;;;;7.87;5.23;;;;;10.20;103353.00;;;;5017867;28;20819;-71
2021/12/17 13:39:18;;;;;;;6.20;4.80;;;;;10.00;103358.00;;;;5019810;28;20234;-67
2021/12/17 13:42:06;;;;;;;6.73;5.20;;;;;10.10;103355.00;;;;5015470;28;20236;-72
2021/12/17 13:44:53;;;;;;;6.77;5.67;;;;;10.10;103358.00;;;;4997844;28;20233;-69
2021/12/17 13:47:41;;;;;;;8.80;5.30;;;;;10.10;103357.00;;;;4987719;28;20616;-68
2021/12/17 13:50:30;;;;;;;8.83;5.63;;;;;10.00;103351.00;;;;4992337;28;21166;-69
2021/12/17 13:53:18;;;;;;;9.57;6.07;;;;;10.10;103359.00;;;;4982449;28;20410;-69
2021/12/17 13:56:24;;;;;;;8.03;5.53;;;;;10.10;103370.00;;;;4986789;28;20361;-67
2021/12/17 13:59:10;;;;;;;8.17;5.70;;;;;10.10;103368.00;;;;4977259;28;20381;-70
2021/12/17 14:01:57;;;;;;;7.20;5.70;;;;;10.00;103366.00;;;;4975672;28;20242;-69
2021/12/17 14:04:59;;;;;;;9.50;6.40;;;;;9.90;103371.00;;;;4977903;28;20369;-68
2021/12/17 14:07:49;;;;;;;9.20;5.43;;;;;9.80;103366.00;;;;4991201;28;20722;-71
2021/12/17 14:10:37;;;;;;;7.50;5.60;;;;;9.80;103372.00;;;;4986815;28;20256;-71
2021/12/17 14:13:25;;;;;;;7.63;5.60;;;;;9.90;103360.00;;;;4988860;28;20239;-70
2021/12/17 14:16:29;;;;;;;11.03;5.70;;;;;10.00;103371.00;;;;5006182;28;20237;-70
2021/12/17 14:19:15;;;;;;;9.73;5.67;;;;;9.90;103371.00;;;;5009510;28;20338;-72
2021/12/17 14:22:01;;;;;;;8.77;6.07;;;;;9.80;103369.00;;;;5013831;28;20229;-72
2021/12/17 14:24:47;;;;;;;10.27;6.03;;;;;9.80;103377.00;;;;4996226;28;20285;-71
2021/12/17 14:27:45;;;;;;;9.97;6.27;;;;;9.90;103354.00;;;;4997772;28;20305;-71
2021/12/17 14:30:36;;;;;;;8.20;6.27;;;;;9.90;103363.00;;;;4993409;28;20238;-70
2021/12/17 14:33:25;;;;;;;10.67;5.83;;;;;9.80;103353.00;;;;5005016;28;20226;-69
2021/12/17 14:36:13;;;;;;;12.43;6.17;;;;;9.80;103367.00;;;;5002219;28;20230;-69
2021/12/17 14:39:06;;;;;;;9.83;7.17;;;;;9.90;103356.00;;;;4986619;28;20234;-70
2021/12/17 14:41:56;;;;;;;9.47;6.70;;;;;9.80;103341.00;;;;4982201;28;20322;-70
2021/12/17 14:44:53;;;;;;;9.67;6.60;;;;;9.80;103347.00;;;;4999011;28;20241;-69
2021/12/17 14:47:51;;;;;;;10.53;5.77;;;;;9.80;103348.00;;;;4997681;28;20259;-70
2021/12/17 15:03:20;;;;;;;11.17;6.60;;;;;9.60;103358.00;;;;5008156;28;20242;-69
2021/12/17 15:06:13;;;;;;;11.47;6.80;;;;;9.50;103366.00;;;;5002982;28;20234;-69
2021/12/17 15:09:01;;;;;;;8.93;6.00;;;;;9.40;103357.00;;;;5012386;28;20238;-70
2021/12/17 15:11:57;;;;;;;9.43;5.87;;;;;9.30;103363.00;;;;4985461;28;20258;-68
2021/12/17 15:14:43;;;;;;;9.87;5.90;;;;;9.40;103370.00;;;;5006485;28;20231;-70
2021/12/17 15:17:32;;;;;;;9.77;6.13;;;;;9.40;103360.00;;;;5005794;28;20233;-68
2021/12/17 15:20:36;;;;;;;9.33;6.43;;;;;9.30;103371.00;;;;4986658;28;20232;-69
2021/12/17 15:23:22;;;;;;;9.97;6.13;;;;;9.40;103384.00;;;;4977408;28;20283;-70
2021/12/17 15:26:08;;;;;;;11.37;7.00;;;;;9.40;103381.00;;;;4986563;28;20367;-70
2021/12/17 15:28:54;;;;;;;9.30;5.97;;;;;9.50;103394.00;;;;4974088;28;20229;-69
2021/12/17 15:31:53;;;;;;;12.43;7.30;;;;;9.50;103388.00;;;;4980992;28;20267;-70
2021/12/17 15:34:40;;;;;;;11.67;6.33;;;;;9.40;103384.00;;;;4985285;28;20613;-70
2021/12/17 15:37:27;;;;;;;11.23;6.73;;;;;9.40;103385.00;;;;4978118;28;20248;-69
2021/12/17 15:40:15;;;;;;;10.53;6.13;;;;;9.30;103376.00;;;;4985070;28;20316;-70
2021/12/17 15:43:03;;;;;;;13.93;6.10;;;;;9.30;103375.00;;;;4987606;28;20311;-70
2021/12/17 15:45:52;;;;;;;11.30;6.50;;;;;9.30;103376.00;;;;5003207;28;20377;-70
2021/12/17 15:48:38;;;;;;;11.27;7.07;;;;;9.30;103380.00;;;;5005072;28;20991;-70
2021/12/17 15:51:26;;;;;;;13.30;7.53;;;;;9.30;103370.00;;;;4986228;28;20383;-70
2021/12/17 15:54:12;;;;;;;11.00;7.57;;;;;9.20;103369.00;;;;5002663;28;20276;-69
2021/12/17 15:56:58;;;;;;;11.50;7.67;;;;;9.20;103373.00;;;;4985140;28;20258;-69
2021/12/17 15:59:45;;;;;;;11.50;6.83;;;;;9.10;103367.00;;;;4992422;28;20287;-69
2021/12/17 16:02:32;;;;;;;13.97;7.13;;;;;9.20;103373.00;;;;4984177;28;20244;-69
2021/12/17 16:05:21;;;;;;;12.00;7.13;;;;;9.20;103381.00;;;;4988685;28;20312;-68
2021/12/17 16:08:09;;;;;;;10.63;7.10;;;;;9.20;103381.00;;;;4995475;28;20246;-70
2021/12/17 16:11:27;;;;;;;14.87;8.17;;;;;9.20;103384.00;;;;4995994;28;20235;-69
2021/12/17 16:23:29;;;;;;;15.63;9.50;;;;;9.20;103384.00;;;;5007846;28;20354;-71
2021/12/17 16:26:18;;;;;;;12.33;8.80;;;;;9.10;103388.00;;;;4998340;28;20227;-69
2021/12/17 16:29:08;;;;;;;10.57;6.60;;;;;9.10;103387.00;;;;4994090;28;20237;-71
2021/12/17 16:31:54;;;;;;;8.80;5.23;;;;;9.10;103390.00;;;;4993937;28;20732;-72